Terminal Aerodrome Forecast
Issued by NWS

Home | Current Version | Previous Version | Text Only | Print | Product List | Glossary Off
Versions: 1 2 3 4 5 6 7 8 9 10 11 12 13 14 15 16

000
FTUS43 KGRB 022151 AAA
TAFMTW
TAF AMD
KMTW 022151Z 0222/0318 16008KT P6SM VCSH SCT040 BKN080
      TEMPO 0222/0224 5SM -SHRA BR BKN040
     FM030000 03006G18KT 5SM BR SCT035 BKN070
      TEMPO 0300/0304 2SM -SHRA BR BKN035
     FM030500 VRB03KT 4SM BR VCTS SCT035CB BKN120
     FM030900 VRB03KT 3SM BR VCSH SCT009 BKN030
      TEMPO 0309/0313 1SM -TSRA BR BKN009CB
     FM031500 15005KT P6SM VCSH BKN020=

USA.gov is the U.S. government's official web portal to all federal, state and local government web resources and services.